sensor_id;sensor_type;location;lat;lon;timestamp;pressure;altitude;pressure_sealevel;temperature;humidity
5966;BME280;3009;43.224;27.976;2023-04-15T00:01:13;99841.09;;;11.86;100.00
5966;BME280;3009;43.224;27.976;2023-04-15T00:03:46;99835.72;;;11.86;100.00
5966;BME280;3009;43.224;27.976;2023-04-15T00:06:14;99831.56;;;11.98;100.00
5966;BME280;3009;43.224;27.976;2023-04-15T00:08:43;99815.22;;;12.03;100.00
5966;BME280;3009;43.224;27.976;2023-04-15T00:11:13;99824.41;;;12.02;99.09
5966;BME280;3009;43.224;27.976;2023-04-15T00:13:43;99808.28;;;12.02;98.25
5966;BME280;3009;43.224;27.976;2023-04-15T00:16:11;99818.38;;;12.05;97.17
5966;BME280;3009;43.224;27.976;2023-04-15T00:18:40;99809.97;;;12.07;97.89
5966;BME280;3009;43.224;27.976;2023-04-15T00:21:08;99825.78;;;12.08;98.00
5966;BME280;3009;43.224;27.976;2023-04-15T00:23:36;99827.78;;;12.11;98.47
5966;BME280;3009;43.224;27.976;2023-04-15T00:26:05;99819.75;;;12.11;99.00
5966;BME280;3009;43.224;27.976;2023-04-15T00:28:33;99822.09;;;12.13;99.66
5966;BME280;3009;43.224;27.976;2023-04-15T00:31:03;99823.88;;;12.21;97.80
5966;BME280;3009;43.224;27.976;2023-04-15T00:33:32;99826.25;;;12.22;98.20
5966;BME280;3009;43.224;27.976;2023-04-15T00:36:02;99833.88;;;12.33;91.02
5966;BME280;3009;43.224;27.976;2023-04-15T00:38:31;99830.88;;;12.34;91.24
5966;BME280;3009;43.224;27.976;2023-04-15T00:41:00;99842.19;;;12.40;90.15
5966;BME280;3009;43.224;27.976;2023-04-15T00:43:30;99846.13;;;12.43;91.48
5966;BME280;3009;43.224;27.976;2023-04-15T00:45:59;99849.34;;;12.36;95.36
5966;BME280;3009;43.224;27.976;2023-04-15T00:48:31;99848.44;;;12.32;94.66
5966;BME280;3009;43.224;27.976;2023-04-15T00:50:59;99848.44;;;12.32;95.28
5966;BME280;3009;43.224;27.976;2023-04-15T00:53:28;99849.69;;;12.34;95.51
5966;BME280;3009;43.224;27.976;2023-04-15T00:55:56;99840.84;;;12.34;94.99
5966;BME280;3009;43.224;27.976;2023-04-15T00:58:25;99838.59;;;12.36;96.09
5966;BME280;3009;43.224;27.976;2023-04-15T01:00:55;99845.56;;;12.37;98.24
5966;BME280;3009;43.224;27.976;2023-04-15T01:03:24;99841.88;;;12.41;94.70
5966;BME280;3009;43.224;27.976;2023-04-15T01:05:54;99841.19;;;12.45;94.95
5966;BME280;3009;43.224;27.976;2023-04-15T01:08:26;99845.13;;;12.47;93.92
5966;BME280;3009;43.224;27.976;2023-04-15T01:10:55;99849.38;;;12.48;94.38
5966;BME280;3009;43.224;27.976;2023-04-15T01:13:24;99842.66;;;12.54;91.85
5966;BME280;3009;43.224;27.976;2023-04-15T01:15:52;99842.78;;;12.58;91.90
5966;BME280;3009;43.224;27.976;2023-04-15T01:18:22;99837.53;;;12.62;92.18
5966;BME280;3009;43.224;27.976;2023-04-15T01:20:51;99843.81;;;12.66;90.92
5966;BME280;3009;43.224;27.976;2023-04-15T01:23:21;99836.84;;;12.65;88.97
5966;BME280;3009;43.224;27.976;2023-04-15T01:25:52;99834.41;;;12.72;87.22
5966;BME280;3009;43.224;27.976;2023-04-15T01:28:20;99836.41;;;12.75;89.66
5966;BME280;3009;43.224;27.976;2023-04-15T01:30:49;99836.19;;;12.80;88.81
5966;BME280;3009;43.224;27.976;2023-04-15T01:33:17;99837.31;;;12.67;89.82
5966;BME280;3009;43.224;27.976;2023-04-15T01:35:46;99844.72;;;12.70;87.91
5966;BME280;3009;43.224;27.976;2023-04-15T01:38:14;99832.81;;;12.71;87.79
5966;BME280;3009;43.224;27.976;2023-04-15T01:40:42;99837.09;;;12.72;89.74
5966;BME280;3009;43.224;27.976;2023-04-15T01:43:13;99838.66;;;12.73;87.43
5966;BME280;3009;43.224;27.976;2023-04-15T01:45:42;99837.09;;;12.72;89.34
5966;BME280;3009;43.224;27.976;2023-04-15T01:48:10;99835.41;;;12.67;91.77
5966;BME280;3009;43.224;27.976;2023-04-15T01:50:39;99831.94;;;12.67;90.94
5966;BME280;3009;43.224;27.976;2023-04-15T01:53:08;99829.94;;;12.64;90.18
5966;BME280;3009;43.224;27.976;2023-04-15T01:55:37;99822.53;;;12.61;90.01
5966;BME280;3009;43.224;27.976;2023-04-15T01:58:05;99815.56;;;12.59;91.20
5966;BME280;3009;43.224;27.976;2023-04-15T02:00:35;99825.84;;;12.57;92.05
5966;BME280;3009;43.224;27.976;2023-04-15T02:03:03;99828.53;;;12.57;92.50
5966;BME280;3009;43.224;27.976;2023-04-15T02:05:32;99834.84;;;12.62;91.67
5966;BME280;3009;43.224;27.976;2023-04-15T02:08:00;99823.63;;;12.59;91.50
5966;BME280;3009;43.224;27.976;2023-04-15T02:10:29;99827.53;;;12.50;95.17
5966;BME280;3009;43.224;27.976;2023-04-15T02:12:58;99824.50;;;12.51;95.15
5966;BME280;3009;43.224;27.976;2023-04-15T02:15:26;99832.91;;;12.50;92.42
5966;BME280;3009;43.224;27.976;2023-04-15T02:17:56;99829.19;;;12.42;95.83
5966;BME280;3009;43.224;27.976;2023-04-15T02:20:26;99828.88;;;12.44;94.79
5966;BME280;3009;43.224;27.976;2023-04-15T02:22:56;99833.22;;;12.36;95.16
5966;BME280;3009;43.224;27.976;2023-04-15T02:25:24;99829.50;;;12.28;98.94
5966;BME280;3009;43.224;27.976;2023-04-15T02:27:53;99825.03;;;12.20;98.16
5966;BME280;3009;43.224;27.976;2023-04-15T02:30:24;99825.81;;;12.20;93.83
5966;BME280;3009;43.224;27.976;2023-04-15T02:32:53;99829.34;;;12.12;99.91
5966;BME280;3009;43.224;27.976;2023-04-15T02:35:23;99837.50;;;12.03;100.00
5966;BME280;3009;43.224;27.976;2023-04-15T02:37:51;99830.69;;;12.06;100.00
5966;BME280;3009;43.224;27.976;2023-04-15T02:40:20;99832.25;;;12.07;100.00
5966;BME280;3009;43.224;27.976;2023-04-15T02:42:49;99834.28;;;12.10;100.00
5966;BME280;3009;43.224;27.976;2023-04-15T02:45:17;99841.22;;;12.11;100.00
5966;BME280;3009;43.224;27.976;2023-04-15T02:47:49;99834.28;;;12.10;100.00
5966;BME280;3009;43.224;27.976;2023-04-15T02:50:18;99837.63;;;12.07;100.00
5966;BME280;3009;43.224;27.976;2023-04-15T02:52:48;99830.22;;;12.04;100.00
5966;BME280;3009;43.224;27.976;2023-04-15T02:55:16;99840.19;;;12.03;100.00
5966;BME280;3009;43.224;27.976;2023-04-15T02:57:45;99832.59;;;12.05;100.00
5966;BME280;3009;43.224;27.976;2023-04-15T03:00:13;99837.63;;;12.07;100.00
5966;BME280;3009;43.224;27.976;2023-04-15T03:02:43;99847.72;;;12.10;100.00
5966;BME280;3009;43.224;27.976;2023-04-15T03:05:12;99848.03;;;12.09;100.00
5966;BME280;3009;43.224;27.976;2023-04-15T03:07:41;99850.16;;;12.03;100.00
5966;BME280;3009;43.224;27.976;2023-04-15T03:10:10;99839.72;;;12.01;100.00
5966;BME280;3009;43.224;27.976;2023-04-15T03:12:39;99849.38;;;12.02;100.00
5966;BME280;3009;43.224;27.976;2023-04-15T03:15:08;99843.22;;;12.02;100.00
5966;BME280;3009;43.224;27.976;2023-04-15T03:17:37;99835.16;;;12.02;100.00
5966;BME280;3009;43.224;27.976;2023-04-15T03:20:06;99839.53;;;12.07;100.00
5966;BME280;3009;43.224;27.976;2023-04-15T03:22:35;99838.72;;;12.06;100.00
5966;BME280;3009;43.224;27.976;2023-04-15T03:25:04;99844.38;;;12.13;98.19
5966;BME280;3009;43.224;27.976;2023-04-15T03:27:34;99841.81;;;12.17;95.06
5966;BME280;3009;43.224;27.976;2023-04-15T03:30:03;99844.38;;;12.13;92.60
5966;BME280;3009;43.224;27.976;2023-04-15T03:32:32;99831.25;;;12.12;89.87
5966;BME280;3009;43.224;27.976;2023-04-15T03:35:01;99837.97;;;12.05;89.23
5966;BME280;3009;43.224;27.976;2023-04-15T03:37:29;99832.00;;;12.00;89.25
5966;BME280;3009;43.224;27.976;2023-04-15T03:39:57;99838.03;;;11.97;88.73
5966;BME280;3009;43.224;27.976;2023-04-15T03:42:25;99831.25;;;11.91;88.83
5966;BME280;3009;43.224;27.976;2023-04-15T03:44:55;99837.19;;;11.84;89.28
5966;BME280;3009;43.224;27.976;2023-04-15T03:47:24;99845.97;;;11.93;88.62
5966;BME280;3009;43.224;27.976;2023-04-15T03:49:52;99840.19;;;12.03;89.10
5966;BME280;3009;43.224;27.976;2023-04-15T03:52:20;99847.28;;;12.08;87.84
5966;BME280;3009;43.224;27.976;2023-04-15T03:54:49;99839.03;;;12.26;87.41
5966;BME280;3009;43.224;27.976;2023-04-15T03:57:18;99839.44;;;12.49;85.26
5966;BME280;3009;43.224;27.976;2023-04-15T03:59:46;99838.00;;;12.76;83.41
5966;BME280;3009;43.224;27.976;2023-04-15T04:02:16;99845.06;;;12.93;82.32
5966;BME280;3009;43.224;27.976;2023-04-15T04:04:44;99848.84;;;13.04;82.29
5966;BME280;3009;43.224;27.976;2023-04-15T04:07:14;99845.50;;;13.20;82.63
5966;BME280;3009;43.224;27.976;2023-04-15T04:09:43;99856.38;;;13.11;85.04
5966;BME280;3009;43.224;27.976;2023-04-15T04:12:13;99849.53;;;13.26;86.66
5966;BME280;3009;43.224;27.976;2023-04-15T04:14:41;99845.22;;;13.50;86.82
5966;BME280;3009;43.224;27.976;2023-04-15T04:17:10;99857.66;;;13.67;85.90
5966;BME280;3009;43.224;27.976;2023-04-15T04:19:40;99862.38;;;13.70;84.29
5966;BME280;3009;43.224;27.976;2023-04-15T04:22:08;99864.25;;;13.69;83.60
5966;BME280;3009;43.224;27.976;2023-04-15T04:24:37;99863.75;;;13.63;85.28
5966;BME280;3009;43.224;27.976;2023-04-15T04:27:05;99867.56;;;13.62;83.25
5966;BME280;3009;43.224;27.976;2023-04-15T04:29:33;99871.75;;;13.35;83.70
5966;BME280;3009;43.224;27.976;2023-04-15T04:32:02;99879.38;;;13.08;85.22
5966;BME280;3009;43.224;27.976;2023-04-15T04:34:30;99868.69;;;13.00;87.85
5966;BME280;3009;43.224;27.976;2023-04-15T04:37:00;99870.06;;;12.93;89.35
5966;BME280;3009;43.224;27.976;2023-04-15T04:39:29;99866.47;;;12.89;90.01
5966;BME280;3009;43.224;27.976;2023-04-15T04:41:57;99873.31;;;12.87;90.16
5966;BME280;3009;43.224;27.976;2023-04-15T04:44:25;99874.09;;;12.87;89.10
5966;BME280;3009;43.224;27.976;2023-04-15T04:46:54;99870.28;;;12.88;89.80
5966;BME280;3009;43.224;27.976;2023-04-15T04:49:22;99868.38;;;12.89;90.73
5966;BME280;3009;43.224;27.976;2023-04-15T04:51:51;99878.25;;;12.97;91.08
5966;BME280;3009;43.224;27.976;2023-04-15T04:54:21;99878.78;;;12.90;91.41
5966;BME280;3009;43.224;27.976;2023-04-15T04:56:49;99876.22;;;13.06;92.83
5966;BME280;3009;43.224;27.976;2023-04-15T04:59:18;99884.66;;;13.05;95.03
5966;BME280;3009;43.224;27.976;2023-04-15T05:01:46;99875.09;;;12.95;96.76
5966;BME280;3009;43.224;27.976;2023-04-15T05:04:15;99878.59;;;12.96;99.78
5966;BME280;3009;43.224;27.976;2023-04-15T05:06:43;99883.31;;;12.99;97.18
5966;BME280;3009;43.224;27.976;2023-04-15T05:09:12;99883.06;;;12.91;96.11
5966;BME280;3009;43.224;27.976;2023-04-15T05:11:42;99881.03;;;12.88;96.27
5966;BME280;3009;43.224;27.976;2023-04-15T05:14:10;99876.25;;;12.94;96.87
5966;BME280;3009;43.224;27.976;2023-04-15T05:16:38;99879.47;;;13.00;96.72
5966;BME280;3009;43.224;27.976;2023-04-15T05:19:07;99875.91;;;13.08;96.57
5966;BME280;3009;43.224;27.976;2023-04-15T05:21:36;99874.66;;;13.18;96.24
5966;BME280;3009;43.224;27.976;2023-04-15T05:24:05;99874.88;;;13.25;95.88
5966;BME280;3009;43.224;27.976;2023-04-15T05:26:34;99875.44;;;13.30;95.26
5966;BME280;3009;43.224;27.976;2023-04-15T05:29:05;99884.09;;;13.49;94.67
5966;BME280;3009;43.224;27.976;2023-04-15T05:31:33;99876.44;;;13.26;94.93
5966;BME280;3009;43.224;27.976;2023-04-15T05:34:02;99877.34;;;13.18;96.53
5966;BME280;3009;43.224;27.976;2023-04-15T05:36:31;99871.63;;;13.19;98.26
5966;BME280;3009;43.224;27.976;2023-04-15T05:38:59;99876.31;;;13.22;98.47
5966;BME280;3009;43.224;27.976;2023-04-15T05:41:28;99874.09;;;13.37;96.59
5966;BME280;3009;43.224;27.976;2023-04-15T05:43:56;99879.72;;;13.32;96.68
5966;BME280;3009;43.224;27.976;2023-04-15T05:46:26;99875.88;;;13.33;97.30
5966;BME280;3009;43.224;27.976;2023-04-15T05:48:54;99870.94;;;13.22;98.06
5966;BME280;3009;43.224;27.976;2023-04-15T05:51:23;99877.69;;;13.16;98.96
5966;BME280;3009;43.224;27.976;2023-04-15T05:53:51;99879.69;;;13.19;98.59
5966;BME280;3009;43.224;27.976;2023-04-15T05:56:20;99882.38;;;13.19;99.22
5966;BME280;3009;43.224;27.976;2023-04-15T05:58:48;99881.50;;;13.27;99.01
5966;BME280;3009;43.224;27.976;2023-04-15T06:01:19;99884.44;;;13.35;97.88
5966;BME280;3009;43.224;27.976;2023-04-15T06:03:49;99919.53;;;13.51;95.76
5966;BME280;3009;43.224;27.976;2023-04-15T06:06:18;99929.06;;;13.23;97.07
5966;BME280;3009;43.224;27.976;2023-04-15T06:08:46;99919.97;;;13.16;99.43
5966;BME280;3009;43.224;27.976;2023-04-15T06:11:15;99934.53;;;13.02;100.00
5966;BME280;3009;43.224;27.976;2023-04-15T06:13:43;99934.19;;;13.04;100.00
5966;BME280;3009;43.224;27.976;2023-04-15T06:16:12;99942.41;;;13.20;100.00
5966;BME280;3009;43.224;27.976;2023-04-15T06:18:40;99938.56;;;13.08;100.00
5966;BME280;3009;43.224;27.976;2023-04-15T06:21:10;99947.22;;;13.02;100.00
5966;BME280;3009;43.224;27.976;2023-04-15T06:23:38;99954.81;;;13.00;100.00
5966;BME280;3009;43.224;27.976;2023-04-15T06:26:08;99957.75;;;12.94;100.00
5966;BME280;3009;43.224;27.976;2023-04-15T06:28:36;99971.63;;;12.84;100.00
5966;BME280;3009;43.224;27.976;2023-04-15T06:31:05;99963.41;;;12.68;100.00
5966;BME280;3009;43.224;27.976;2023-04-15T06:33:33;99976.59;;;12.61;100.00
5966;BME280;3009;43.224;27.976;2023-04-15T06:36:01;99970.75;;;12.59;100.00
5966;BME280;3009;43.224;27.976;2023-04-15T06:38:32;99967.84;;;12.52;100.00
5966;BME280;3009;43.224;27.976;2023-04-15T06:41:02;99970.72;;;12.47;100.00
5966;BME280;3009;43.224;27.976;2023-04-15T06:43:30;99966.63;;;12.62;100.00
5966;BME280;3009;43.224;27.976;2023-04-15T06:45:58;99954.78;;;12.75;100.00
5966;BME280;3009;43.224;27.976;2023-04-15T06:48:27;99952.53;;;12.77;100.00
5966;BME280;3009;43.224;27.976;2023-04-15T06:50:55;99947.66;;;12.91;100.00
5966;BME280;3009;43.224;27.976;2023-04-15T06:53:24;99944.28;;;12.94;100.00
5966;BME280;3009;43.224;27.976;2023-04-15T06:55:55;99948.56;;;12.96;100.00
5966;BME280;3009;43.224;27.976;2023-04-15T06:58:23;99963.38;;;13.14;100.00
5966;BME280;3009;43.224;27.976;2023-04-15T07:00:52;99949.25;;;13.17;100.00
5966;BME280;3009;43.224;27.976;2023-04-15T07:03:20;99944.53;;;13.26;100.00
5966;BME280;3009;43.224;27.976;2023-04-15T07:05:49;99955.75;;;13.28;100.00
5966;BME280;3009;43.224;27.976;2023-04-15T07:08:18;99963.38;;;13.14;100.00
5966;BME280;3009;43.224;27.976;2023-04-15T07:10:46;99961.47;;;13.15;100.00
5966;BME280;3009;43.224;27.976;2023-04-15T07:13:16;99968.56;;;13.32;100.00
5966;BME280;3009;43.224;27.976;2023-04-15T07:15:44;99983.72;;;13.49;100.00
5966;BME280;3009;43.224;27.976;2023-04-15T07:18:12;99986.75;;;13.59;100.00
5966;BME280;3009;43.224;27.976;2023-04-15T07:20:41;99990.13;;;13.69;100.00
5966;BME280;3009;43.224;27.976;2023-04-15T07:23:10;99991.47;;;13.62;100.00
5966;BME280;3009;43.224;27.976;2023-04-15T07:25:38;99991.00;;;13.73;100.00
5966;BME280;3009;43.224;27.976;2023-04-15T07:28:07;99991.66;;;13.94;100.00
5966;BME280;3009;43.224;27.976;2023-04-15T07:30:37;99989.56;;;14.16;100.00
5966;BME280;3009;43.224;27.976;2023-04-15T07:33:05;99995.84;;;14.20;100.00
5966;BME280;3009;43.224;27.976;2023-04-15T07:35:34;100001.34;;;13.83;100.00
5966;BME280;3009;43.224;27.976;2023-04-15T07:38:02;99998.03;;;14.02;100.00
5966;BME280;3009;43.224;27.976;2023-04-15T07:40:31;99996.16;;;14.03;100.00
5966;BME280;3009;43.224;27.976;2023-04-15T07:43:00;99995.81;;;14.04;100.00
5966;BME280;3009;43.224;27.976;2023-04-15T07:45:29;99997.81;;;14.07;100.00
5966;BME280;3009;43.224;27.976;2023-04-15T07:47:59;99999.03;;;14.22;100.00
5966;BME280;3009;43.224;27.976;2023-04-15T07:50:27;99997.13;;;14.51;99.62
5966;BME280;3009;43.224;27.976;2023-04-15T07:52:56;100007.13;;;14.79;96.52
5966;BME280;3009;43.224;27.976;2023-04-15T07:55:24;100005.59;;;14.94;94.30
5966;BME280;3009;43.224;27.976;2023-04-15T07:57:54;99995.59;;;15.58;90.94
5966;BME280;3009;43.224;27.976;2023-04-15T08:00:22;100001.13;;;16.17;83.84
5966;BME280;3009;43.224;27.976;2023-04-15T08:02:51;100003.75;;;16.13;82.33
5966;BME280;3009;43.224;27.976;2023-04-15T08:05:21;100014.78;;;16.04;83.06
5966;BME280;3009;43.224;27.976;2023-04-15T08:07:50;99999.91;;;15.94;84.27
5966;BME280;3009;43.224;27.976;2023-04-15T08:10:19;100000.13;;;16.05;82.08
5966;BME280;3009;43.224;27.976;2023-04-15T08:12:47;99995.50;;;16.45;81.77
5966;BME280;3009;43.224;27.976;2023-04-15T08:15:17;100000.72;;;16.54;79.04
5966;BME280;3009;43.224;27.976;2023-04-15T08:17:45;100003.03;;;16.75;77.89
5966;BME280;3009;43.224;27.976;2023-04-15T08:20:14;100009.41;;;16.43;78.55
5966;BME280;3009;43.224;27.976;2023-04-15T08:22:44;100011.78;;;16.88;75.57
5966;BME280;3009;43.224;27.976;2023-04-15T08:25:13;99996.72;;;16.67;71.92
5966;BME280;3009;43.224;27.976;2023-04-15T08:27:42;99998.00;;;16.54;73.78
5966;BME280;3009;43.224;27.976;2023-04-15T08:30:11;99999.59;;;16.55;72.85
5966;BME280;3009;43.224;27.976;2023-04-15T08:32:41;99986.25;;;16.65;73.29
5966;BME280;3009;43.224;27.976;2023-04-15T08:35:09;99982.47;;;16.70;72.50
5966;BME280;3009;43.224;27.976;2023-04-15T08:37:37;99990.81;;;16.61;71.13
5966;BME280;3009;43.224;27.976;2023-04-15T08:40:09;99994.94;;;16.36;73.61
5966;BME280;3009;43.224;27.976;2023-04-15T08:42:42;99993.53;;;16.42;75.21
5966;BME280;3009;43.224;27.976;2023-04-15T08:45:11;100002.13;;;16.28;76.60
5966;BME280;3009;43.224;27.976;2023-04-15T08:47:39;99984.00;;;15.26;82.55
5966;BME280;3009;43.224;27.976;2023-04-15T08:50:10;99972.19;;;15.14;84.11
5966;BME280;3009;43.224;27.976;2023-04-15T08:52:39;99984.44;;;15.12;86.74
5966;BME280;3009;43.224;27.976;2023-04-15T08:55:11;99995.66;;;15.46;86.90
5966;BME280;3009;43.224;27.976;2023-04-15T08:57:41;99996.19;;;15.67;86.34
5966;BME280;3009;43.224;27.976;2023-04-15T09:00:11;99990.56;;;15.92;84.71
5966;BME280;3009;43.224;27.976;2023-04-15T09:02:41;99993.13;;;16.04;82.82
5966;BME280;3009;43.224;27.976;2023-04-15T09:05:10;100025.00;;;15.95;82.90
5966;BME280;3009;43.224;27.976;2023-04-15T09:07:39;100029.56;;;15.75;85.03
5966;BME280;3009;43.224;27.976;2023-04-15T09:10:09;100010.91;;;15.70;87.40
5966;BME280;3009;43.224;27.976;2023-04-15T09:12:38;100009.78;;;15.23;90.34
5966;BME280;3009;43.224;27.976;2023-04-15T09:15:10;99997.69;;;15.33;90.86
5966;BME280;3009;43.224;27.976;2023-04-15T09:17:42;100011.78;;;15.26;91.86
5966;BME280;3009;43.224;27.976;2023-04-15T09:20:14;100019.28;;;15.17;93.04
5966;BME280;3009;43.224;27.976;2023-04-15T09:22:47;100010.66;;;15.11;94.17
5966;BME280;3009;43.224;27.976;2023-04-15T09:25:29;100007.63;;;15.13;94.16
5966;BME280;3009;43.224;27.976;2023-04-15T09:28:01;100008.06;;;15.15;93.92
5966;BME280;3009;43.224;27.976;2023-04-15T09:30:29;100010.34;;;15.45;94.29
5966;BME280;3009;43.224;27.976;2023-04-15T09:32:59;100004.88;;;15.92;90.45
5966;BME280;3009;43.224;27.976;2023-04-15T09:35:28;100001.28;;;16.24;88.10
5966;BME280;3009;43.224;27.976;2023-04-15T09:38:02;100001.28;;;16.63;85.23
5966;BME280;3009;43.224;27.976;2023-04-15T09:40:33;99999.19;;;16.76;83.63
5966;BME280;3009;43.224;27.976;2023-04-15T09:43:03;100002.53;;;16.69;82.95
5966;BME280;3009;43.224;27.976;2023-04-15T09:45:32;99996.44;;;16.53;82.95
5966;BME280;3009;43.224;27.976;2023-04-15T09:48:15;99996.44;;;16.53;82.31
5966;BME280;3009;43.224;27.976;2023-04-15T09:50:44;99994.94;;;16.55;82.69
5966;BME280;3009;43.224;27.976;2023-04-15T09:53:15;100002.38;;;16.81;82.41
5966;BME280;3009;43.224;27.976;2023-04-15T09:55:48;100006.88;;;16.93;81.13
5966;BME280;3009;43.224;27.976;2023-04-15T09:58:18;100014.72;;;15.85;85.33
5966;BME280;3009;43.224;27.976;2023-04-15T10:00:47;100022.56;;;16.45;84.61
5966;BME280;3009;43.224;27.976;2023-04-15T10:03:19;100015.66;;;16.47;82.15
5966;BME280;3009;43.224;27.976;2023-04-15T10:05:50;100010.88;;;16.41;83.94
5966;BME280;3009;43.224;27.976;2023-04-15T10:08:20;100010.25;;;16.67;81.66
5966;BME280;3009;43.224;27.976;2023-04-15T10:10:51;100012.47;;;17.04;79.60
5966;BME280;3009;43.224;27.976;2023-04-15T10:13:21;100019.97;;;17.11;78.67
5966;BME280;3009;43.224;27.976;2023-04-15T10:15:55;100012.66;;;16.92;77.88
5966;BME280;3009;43.224;27.976;2023-04-15T10:18:26;100004.88;;;16.71;79.96
5966;BME280;3009;43.224;27.976;2023-04-15T10:20:55;100006.28;;;16.61;80.13
5966;BME280;3009;43.224;27.976;2023-04-15T10:23:24;100015.22;;;16.26;81.83
5966;BME280;3009;43.224;27.976;2023-04-15T10:25:55;100010.47;;;16.58;81.09
5966;BME280;3009;43.224;27.976;2023-04-15T10:28:25;100013.13;;;16.35;81.28
5966;BME280;3009;43.224;27.976;2023-04-15T10:30:54;100014.53;;;16.29;81.49
5966;BME280;3009;43.224;27.976;2023-04-15T10:33:23;100016.28;;;16.21;84.00
5966;BME280;3009;43.224;27.976;2023-04-15T10:35:54;100014.78;;;16.04;83.14
5966;BME280;3009;43.224;27.976;2023-04-15T10:38:37;100010.34;;;15.13;89.59
5966;BME280;3009;43.224;27.976;2023-04-15T10:41:14;100007.06;;;15.87;87.19
5966;BME280;3009;43.224;27.976;2023-04-15T10:43:52;100002.13;;;16.28;83.49
5966;BME280;3009;43.224;27.976;2023-04-15T10:46:22;100004.00;;;16.86;81.09
5966;BME280;3009;43.224;27.976;2023-04-15T10:48:52;100008.78;;;17.39;78.04
5966;BME280;3009;43.224;27.976;2023-04-15T10:51:29;99999.03;;;17.58;73.20
5966;BME280;3009;43.224;27.976;2023-04-15T10:53:59;99994.34;;;17.54;73.02
5966;BME280;3009;43.224;27.976;2023-04-15T10:56:29;99985.41;;;16.84;75.21
5966;BME280;3009;43.224;27.976;2023-04-15T10:58:59;99992.25;;;16.78;76.74
5966;BME280;3009;43.224;27.976;2023-04-15T11:01:49;99995.94;;;17.09;77.07
5966;BME280;3009;43.224;27.976;2023-04-15T11:04:53;99992.78;;;17.07;75.79
5966;BME280;3009;43.224;27.976;2023-04-15T11:07:39;99995.72;;;16.56;75.07
5966;BME280;3009;43.224;27.976;2023-04-15T11:13:24;99996.16;;;16.58;77.47
5966;BME280;3009;43.224;27.976;2023-04-15T11:15:59;100000.91;;;16.25;81.66
5966;BME280;3009;43.224;27.976;2023-04-15T11:18:32;100000.66;;;16.30;82.42
5966;BME280;3009;43.224;27.976;2023-04-15T11:21:03;100003.47;;;16.18;82.18
5966;BME280;3009;43.224;27.976;2023-04-15T11:23:35;100006.66;;;16.04;83.30
5966;BME280;3009;43.224;27.976;2023-04-15T11:26:06;100009.38;;;16.04;83.86
5966;BME280;3009;43.224;27.976;2023-04-15T11:28:38;100006.84;;;15.95;83.77
5966;BME280;3009;43.224;27.976;2023-04-15T11:31:09;100016.59;;;15.81;85.29
5966;BME280;3009;43.224;27.976;2023-04-15T11:33:53;100013.53;;;15.82;85.68
5966;BME280;3009;43.224;27.976;2023-04-15T11:36:23;100011.06;;;15.77;86.24
5966;BME280;3009;43.224;27.976;2023-04-15T11:38:54;100011.94;;;15.65;85.19
5966;BME280;3009;43.224;27.976;2023-04-15T11:41:23;100019.03;;;15.54;84.99
5966;BME280;3009;43.224;27.976;2023-04-15T11:43:53;100013.56;;;15.34;85.69
5966;BME280;3009;43.224;27.976;2023-04-15T11:46:28;100014.84;;;15.09;87.70
5966;BME280;3009;43.224;27.976;2023-04-15T11:48:56;100015.63;;;15.09;89.23
5966;BME280;3009;43.224;27.976;2023-04-15T11:51:31;100018.16;;;15.18;87.49
5966;BME280;3009;43.224;27.976;2023-04-15T11:53:59;100019.75;;;15.19;85.85
5966;BME280;3009;43.224;27.976;2023-04-15T11:56:28;100016.50;;;15.29;86.35
5966;BME280;3009;43.224;27.976;2023-04-15T11:58:59;100020.78;;;15.30;84.66
5966;BME280;3009;43.224;27.976;2023-04-15T12:01:31;100015.28;;;15.42;83.48
5966;BME280;3009;43.224;27.976;2023-04-15T12:04:01;100013.28;;;15.55;83.17
5966;BME280;3009;43.224;27.976;2023-04-15T12:06:33;100010.81;;;15.66;82.51
5966;BME280;3009;43.224;27.976;2023-04-15T12:09:08;100015.53;;;15.69;83.24
5966;BME280;3009;43.224;27.976;2023-04-15T12:11:43;100004.47;;;15.58;83.65
5966;BME280;3009;43.224;27.976;2023-04-15T12:14:23;100011.00;;;15.57;83.31
5966;BME280;3009;43.224;27.976;2023-04-15T12:16:53;100020.69;;;15.58;83.55
5966;BME280;3009;43.224;27.976;2023-04-15T12:19:25;100022.50;;;15.70;84.07
5966;BME280;3009;43.224;27.976;2023-04-15T12:21:58;100008.56;;;15.84;83.08
5966;BME280;3009;43.224;27.976;2023-04-15T12:24:28;100009.31;;;15.85;80.80
5966;BME280;3009;43.224;27.976;2023-04-15T12:27:01;100007.78;;;15.68;81.04
5966;BME280;3009;43.224;27.976;2023-04-15T12:29:33;100015.09;;;15.67;81.37
5966;BME280;3009;43.224;27.976;2023-04-15T12:32:06;100008.41;;;15.61;82.77
5966;BME280;3009;43.224;27.976;2023-04-15T12:34:37;100009.41;;;15.72;81.55
5966;BME280;3009;43.224;27.976;2023-04-15T12:37:07;100015.53;;;15.53;80.70
5966;BME280;3009;43.224;27.976;2023-04-15T12:39:38;100009.69;;;15.67;81.48
5966;BME280;3009;43.224;27.976;2023-04-15T12:42:07;100015.19;;;15.87;80.29
5966;BME280;3009;43.224;27.976;2023-04-15T12:44:38;100008.16;;;16.02;79.19
5966;BME280;3009;43.224;27.976;2023-04-15T12:47:08;100012.03;;;16.20;77.96
5966;BME280;3009;43.224;27.976;2023-04-15T12:49:37;100013.66;;;16.25;77.97
5966;BME280;3009;43.224;27.976;2023-04-15T12:52:06;100009.19;;;16.33;74.28
5966;BME280;3009;43.224;27.976;2023-04-15T12:54:34;100018.66;;;16.42;73.63
5966;BME280;3009;43.224;27.976;2023-04-15T12:57:03;100013.03;;;16.51;73.30
5966;BME280;3009;43.224;27.976;2023-04-15T12:59:33;100002.13;;;16.67;72.28
5966;BME280;3009;43.224;27.976;2023-04-15T13:02:03;100008.13;;;16.57;71.94
5966;BME280;3009;43.224;27.976;2023-04-15T13:04:32;100006.38;;;16.68;72.01
5966;BME280;3009;43.224;27.976;2023-04-15T13:07:01;100014.22;;;16.73;71.13
5966;BME280;3009;43.224;27.976;2023-04-15T13:09:29;100017.13;;;16.84;70.85
5966;BME280;3009;43.224;27.976;2023-04-15T13:12:00;100008.22;;;16.83;68.39
5966;BME280;3009;43.224;27.976;2023-04-15T13:14:28;100014.50;;;16.88;67.66
5966;BME280;3009;43.224;27.976;2023-04-15T13:16:58;100019.47;;;16.86;67.16
5966;BME280;3009;43.224;27.976;2023-04-15T13:19:28;100017.72;;;16.74;67.09
5966;BME280;3009;43.224;27.976;2023-04-15T13:21:57;100023.63;;;16.99;66.61